createdAt,value
2023-04-16T00:01:59.731Z,11.82
2023-04-16T00:04:26.535Z,11.91
2023-04-16T00:06:53.100Z,11.97
2023-04-16T00:09:19.812Z,11.68
2023-04-16T00:11:46.331Z,11.81
2023-04-16T00:14:12.945Z,11.66
2023-04-16T00:16:39.619Z,11.59
2023-04-16T00:19:07.221Z,11.61
2023-04-16T00:21:33.820Z,11.60
2023-04-16T00:24:00.375Z,11.60
2023-04-16T00:26:32.303Z,11.55
2023-04-16T00:28:59.839Z,11.72
2023-04-16T00:31:30.931Z,11.73
2023-04-16T00:33:57.999Z,11.80
2023-04-16T00:36:25.007Z,11.60
2023-04-16T00:38:51.736Z,11.80
2023-04-16T00:41:18.316Z,11.79
2023-04-16T00:43:44.952Z,11.81
2023-04-16T00:46:14.186Z,11.71
2023-04-16T00:48:41.577Z,11.71
2023-04-16T00:51:08.979Z,12.03
2023-04-16T00:53:35.839Z,11.74
2023-04-16T00:56:06.278Z,11.86
2023-04-16T00:58:34.819Z,11.71
2023-04-16T01:01:01.723Z,11.89
2023-04-16T01:03:44.923Z,11.62
2023-04-16T01:06:12.052Z,11.55
2023-04-16T01:08:38.860Z,11.62
2023-04-16T01:11:05.709Z,11.48
2023-04-16T01:13:32.725Z,11.77
2023-04-16T01:15:59.651Z,11.56
2023-04-16T01:18:29.095Z,11.57
2023-04-16T01:20:59.052Z,11.66
2023-04-16T01:23:28.774Z,11.67
2023-04-16T01:25:58.184Z,11.48
2023-04-16T01:28:25.426Z,11.12
2023-04-16T01:30:52.036Z,11.46
2023-04-16T01:33:37.006Z,11.53
2023-04-16T01:36:03.885Z,11.37
2023-04-16T01:38:30.484Z,11.44
2023-04-16T01:40:59.502Z,11.27
2023-04-16T01:43:26.132Z,11.37
2023-04-16T01:46:09.713Z,11.16
2023-04-16T01:48:36.412Z,11.31
2023-04-16T01:51:04.941Z,11.26
2023-04-16T01:53:31.602Z,11.14
2023-04-16T01:55:58.151Z,11.08
2023-04-16T01:58:27.113Z,11.30
2023-04-16T02:00:53.755Z,11.39
2023-04-16T02:03:20.519Z,10.93
2023-04-16T02:05:47.521Z,10.86
2023-04-16T02:08:14.072Z,11.02
2023-04-16T02:10:40.624Z,11.22
2023-04-16T02:13:08.148Z,11.00
2023-04-16T02:15:34.709Z,11.16
2023-04-16T02:18:03.725Z,10.89
2023-04-16T02:20:30.939Z,10.95
2023-04-16T02:22:59.867Z,10.98
2023-04-16T02:25:29.866Z,11.14
2023-04-16T02:27:57.767Z,11.06
2023-04-16T02:30:38.111Z,10.86
2023-04-16T02:33:10.047Z,11.04
2023-04-16T02:35:43.416Z,10.89
2023-04-16T02:38:12.073Z,10.75
2023-04-16T02:40:38.690Z,11.02
2023-04-16T02:43:05.384Z,11.11
2023-04-16T02:45:32.831Z,11.22
2023-04-16T02:47:59.997Z,11.22
2023-04-16T02:50:26.689Z,11.28
2023-04-16T02:52:53.413Z,10.94
2023-04-16T02:55:22.831Z,11.32
2023-04-16T02:57:49.522Z,10.64
2023-04-16T03:00:16.429Z,11.12
2023-04-16T03:02:45.668Z,11.05
2023-04-16T03:05:12.643Z,11.15
2023-04-16T03:07:40.733Z,11.10
2023-04-16T03:10:07.847Z,11.03
2023-04-16T03:12:34.890Z,11.01
2023-04-16T03:15:01.529Z,10.97
2023-04-16T03:17:28.217Z,11.12
2023-04-16T03:19:55.668Z,10.99
2023-04-16T03:22:22.366Z,10.91
2023-04-16T03:24:48.899Z,10.44
2023-04-16T03:27:15.549Z,10.81
2023-04-16T03:29:42.136Z,10.89
2023-04-16T03:32:09.466Z,10.89
2023-04-16T03:34:37.144Z,10.88
2023-04-16T03:37:06.592Z,10.45
2023-04-16T03:39:34.179Z,10.52
2023-04-16T03:42:01.992Z,10.29
2023-04-16T03:44:30.444Z,10.59
2023-04-16T03:46:57.267Z,10.85
2023-04-16T03:49:23.848Z,10.81
2023-04-16T03:51:53.338Z,10.87
2023-04-16T03:54:23.428Z,10.74
2023-04-16T03:56:59.690Z,10.51
2023-04-16T03:59:26.333Z,10.48
2023-04-16T04:01:52.999Z,10.56
2023-04-16T04:04:19.918Z,10.70
2023-04-16T04:06:47.162Z,10.55
2023-04-16T04:09:14.135Z,10.94
2023-04-16T04:11:42.960Z,10.83
2023-04-16T04:14:09.597Z,10.45
2023-04-16T04:16:36.310Z,10.67
2023-04-16T04:19:03.195Z,10.65
2023-04-16T04:21:29.854Z,10.49
2023-04-16T04:23:57.030Z,10.54
2023-04-16T04:26:23.764Z,10.50
2023-04-16T04:28:52.971Z,10.76
2023-04-16T04:31:22.014Z,10.80
2023-04-16T04:33:48.647Z,10.70
2023-04-16T04:36:15.530Z,10.60
2023-04-16T04:38:42.249Z,10.57
2023-04-16T04:41:08.896Z,10.47
2023-04-16T04:43:40.737Z,10.53
2023-04-16T04:46:07.508Z,10.27
2023-04-16T04:48:39.843Z,10.63
2023-04-16T04:51:06.573Z,10.46
2023-04-16T04:53:33.202Z,10.61
2023-04-16T04:56:09.232Z,10.89
2023-04-16T04:58:39.380Z,10.51
2023-04-16T05:01:06.259Z,10.45
2023-04-16T05:03:33.072Z,10.47
2023-04-16T05:06:02.383Z,10.48
2023-04-16T05:08:28.934Z,10.40
2023-04-16T05:10:56.443Z,10.59
2023-04-16T05:13:23.106Z,10.47
2023-04-16T05:15:49.689Z,10.61
2023-04-16T05:18:16.363Z,10.58
2023-04-16T05:20:42.899Z,10.49
2023-04-16T05:23:09.464Z,10.57
2023-04-16T05:25:36.216Z,10.63
2023-04-16T05:28:02.778Z,10.62
2023-04-16T05:30:29.428Z,10.67
2023-04-16T05:32:58.384Z,10.60
2023-04-16T05:35:24.916Z,10.56
2023-04-16T05:37:51.532Z,10.91
2023-04-16T05:40:18.198Z,11.01
2023-04-16T05:42:44.814Z,11.06
2023-04-16T05:45:11.504Z,11.03
2023-04-16T05:47:38.181Z,11.03
2023-04-16T05:50:07.310Z,11.06
2023-04-16T05:52:44.403Z,11.31
2023-04-16T05:55:13.340Z,11.36
2023-04-16T05:57:39.938Z,11.09
2023-04-16T06:00:06.960Z,11.29
2023-04-16T06:02:40.854Z,11.21
2023-04-16T06:05:07.835Z,11.11
2023-04-16T06:07:34.386Z,11.09
2023-04-16T06:10:01.573Z,10.95
2023-04-16T06:12:28.142Z,11.11
2023-04-16T06:14:54.913Z,11.20
2023-04-16T06:17:22.739Z,11.36
2023-04-16T06:19:49.393Z,11.10
2023-04-16T06:22:16.191Z,10.93
2023-04-16T06:24:42.785Z,11.05
2023-04-16T06:27:20.722Z,10.91
2023-04-16T06:29:47.281Z,10.97
2023-04-16T06:32:13.857Z,10.93
2023-04-16T06:34:40.759Z,11.09
2023-04-16T06:37:10.392Z,11.02
2023-04-16T06:39:37.375Z,11.34
2023-04-16T06:42:04.213Z,11.09
2023-04-16T06:44:30.808Z,11.03
2023-04-16T06:46:58.293Z,11.06
2023-04-16T06:49:24.987Z,11.06
2023-04-16T06:51:51.501Z,10.95
2023-04-16T06:54:19.772Z,11.24
2023-04-16T06:56:46.396Z,11.29
2023-04-16T06:59:13.016Z,11.27
2023-04-16T07:01:39.586Z,10.84
2023-04-16T07:04:08.427Z,11.08
2023-04-16T07:06:35.222Z,11.26
2023-04-16T07:09:01.842Z,11.40
2023-04-16T07:11:28.884Z,10.71
2023-04-16T07:13:55.494Z,10.76
2023-04-16T07:16:22.138Z,11.05
2023-04-16T07:18:51.064Z,11.31
2023-04-16T07:21:17.698Z,10.74
2023-04-16T07:23:44.275Z,10.80
2023-04-16T07:26:11.934Z,10.81
2023-04-16T07:28:38.555Z,10.90
2023-04-16T07:31:05.345Z,10.73
2023-04-16T07:33:31.917Z,10.87
2023-04-16T07:35:58.477Z,11.12
2023-04-16T07:38:30.426Z,11.11
2023-04-16T07:40:57.063Z,10.84
2023-04-16T07:43:23.608Z,10.83
2023-04-16T07:45:50.250Z,10.98
2023-04-16T07:48:16.777Z,10.93
2023-04-16T07:50:43.693Z,11.21
2023-04-16T07:53:17.585Z,11.34
2023-04-16T07:55:44.198Z,11.01
2023-04-16T07:58:13.576Z,11.30
2023-04-16T08:00:42.347Z,11.09
2023-04-16T08:03:11.491Z,11.14
2023-04-16T08:05:38.169Z,11.12
2023-04-16T08:08:04.900Z,11.37
2023-04-16T08:10:31.538Z,11.14
2023-04-16T08:13:00.093Z,11.39
2023-04-16T08:15:26.718Z,11.43
2023-04-16T08:17:53.456Z,11.47
2023-04-16T08:20:20.296Z,11.46
2023-04-16T08:22:46.885Z,11.38
2023-04-16T08:25:14.434Z,11.26
2023-04-16T08:27:41.101Z,10.79
2023-04-16T08:30:08.339Z,11.05
2023-04-16T08:32:34.923Z,11.24
2023-04-16T08:35:01.587Z,11.50
2023-04-16T08:37:28.259Z,11.61
2023-04-16T08:39:54.839Z,11.19
2023-04-16T08:42:32.553Z,11.50
2023-04-16T08:45:13.432Z,11.62
2023-04-16T08:47:49.954Z,11.67
2023-04-16T08:50:20.268Z,11.63
2023-04-16T08:52:51.436Z,11.71
2023-04-16T08:55:20.603Z,11.76
2023-04-16T08:57:58.085Z,11.83
2023-04-16T09:00:24.818Z,11.24
2023-04-16T09:02:52.187Z,11.53
2023-04-16T09:05:25.612Z,11.54
2023-04-16T09:07:52.834Z,11.71
2023-04-16T09:10:19.936Z,11.85
2023-04-16T09:12:46.626Z,11.94
2023-04-16T09:15:13.990Z,12.03
2023-04-16T09:17:43.787Z,12.05
2023-04-16T09:20:11.164Z,11.96
2023-04-16T09:22:38.271Z,12.09
2023-04-16T09:25:05.033Z,12.10
2023-04-16T09:27:32.033Z,12.22
2023-04-16T09:29:58.695Z,11.94
2023-04-16T09:32:27.323Z,12.12
2023-04-16T09:34:57.256Z,11.64
2023-04-16T09:37:24.648Z,11.86
2023-04-16T09:39:58.502Z,12.18
2023-04-16T09:42:45.654Z,12.24
2023-04-16T09:45:13.755Z,12.43
2023-04-16T09:47:41.656Z,12.56
2023-04-16T09:50:10.585Z,12.71
2023-04-16T09:52:38.987Z,12.67
2023-04-16T09:55:06.006Z,12.60
2023-04-16T09:57:32.608Z,12.25
2023-04-16T10:00:04.091Z,12.54
2023-04-16T10:02:31.752Z,12.53
2023-04-16T10:05:00.822Z,12.11
2023-04-16T10:07:34.469Z,12.14
2023-04-16T10:10:01.362Z,12.40
2023-04-16T10:12:28.885Z,12.55
2023-04-16T10:14:55.648Z,12.59
2023-04-16T10:17:24.014Z,12.65
2023-04-16T10:19:59.975Z,12.39
2023-04-16T10:22:29.761Z,12.61
2023-04-16T10:25:01.828Z,12.79
2023-04-16T10:27:29.010Z,13.03
2023-04-16T10:29:56.724Z,12.40
2023-04-16T10:32:28.715Z,13.03
2023-04-16T10:34:55.846Z,13.09
2023-04-16T10:37:32.172Z,13.56
2023-04-16T10:39:59.939Z,13.57
2023-04-16T10:42:27.551Z,13.69
2023-04-16T10:45:00.009Z,14.00
2023-04-16T10:47:29.504Z,13.85
2023-04-16T10:49:56.194Z,13.76
2023-04-16T10:52:25.028Z,13.64
2023-04-16T10:54:52.716Z,13.87
2023-04-16T10:57:20.590Z,13.36
2023-04-16T10:59:48.778Z,13.91
2023-04-16T11:02:17.903Z,13.20
2023-04-16T11:04:49.001Z,13.41
2023-04-16T11:07:18.017Z,13.55
2023-04-16T11:09:51.128Z,13.80
2023-04-16T11:12:19.052Z,13.54
2023-04-16T11:14:49.789Z,13.44
2023-04-16T11:17:21.597Z,13.39
2023-04-16T11:19:48.547Z,13.60
2023-04-16T11:22:17.307Z,13.60
2023-04-16T11:24:44.704Z,13.76
2023-04-16T11:27:14.631Z,13.82
2023-04-16T11:29:41.732Z,13.98
2023-04-16T11:32:08.557Z,14.01
2023-04-16T11:34:35.223Z,13.76
2023-04-16T11:37:01.847Z,14.00
2023-04-16T11:39:28.518Z,14.05
2023-04-16T11:41:56.050Z,13.83
2023-04-16T11:44:27.455Z,14.05
2023-04-16T11:46:54.481Z,14.48
2023-04-16T11:49:30.830Z,14.40
2023-04-16T11:52:00.400Z,13.88
2023-04-16T11:54:29.170Z,13.93
2023-04-16T11:56:55.768Z,13.98
2023-04-16T11:59:23.540Z,14.21
2023-04-16T12:01:51.304Z,14.13
2023-04-16T12:04:27.292Z,14.30
2023-04-16T12:07:10.509Z,14.41
2023-04-16T12:09:40.148Z,13.79
2023-04-16T12:12:30.577Z,14.33
2023-04-16T12:15:00.165Z,13.89
2023-04-16T12:17:26.951Z,14.30
2023-04-16T12:19:57.982Z,14.22
2023-04-16T12:22:31.371Z,14.41
2023-04-16T12:25:03.221Z,14.84
2023-04-16T12:27:45.573Z,15.23
2023-04-16T12:30:13.560Z,15.19
2023-04-16T12:32:41.348Z,15.20
2023-04-16T12:35:09.379Z,15.32
2023-04-16T12:37:36.012Z,15.49
2023-04-16T12:40:02.839Z,15.63
2023-04-16T12:42:35.611Z,15.28
2023-04-16T12:45:04.872Z,15.51
2023-04-16T12:47:31.922Z,15.40
2023-04-16T12:49:59.271Z,15.50
2023-04-16T12:52:25.968Z,15.72
2023-04-16T12:54:53.181Z,15.85
2023-04-16T12:57:19.799Z,15.35
2023-04-16T12:59:47.136Z,15.32
2023-04-16T13:02:13.846Z,15.19
2023-04-16T13:04:41.147Z,15.01
2023-04-16T13:07:08.176Z,15.32
2023-04-16T13:09:34.898Z,15.69
2023-04-16T13:12:01.625Z,15.56
2023-04-16T13:14:28.269Z,15.78
2023-04-16T13:16:54.802Z,15.83
2023-04-16T13:19:23.727Z,15.97
2023-04-16T13:21:50.307Z,15.92
2023-04-16T13:24:16.980Z,15.88
2023-04-16T13:26:43.625Z,15.43
2023-04-16T13:29:10.461Z,15.05
2023-04-16T13:31:38.536Z,15.06
2023-04-16T13:34:05.348Z,15.57
2023-04-16T13:36:34.106Z,15.45
2023-04-16T13:39:00.691Z,15.53
2023-04-16T13:41:27.535Z,15.53
2023-04-16T13:43:55.425Z,15.07
2023-04-16T13:46:22.145Z,15.25
2023-04-16T13:48:48.764Z,15.24
2023-04-16T13:51:16.406Z,15.21
2023-04-16T13:53:42.979Z,14.83
2023-04-16T13:56:10.468Z,14.79
2023-04-16T13:58:37.056Z,14.90
2023-04-16T14:01:03.852Z,14.82
2023-04-16T14:03:32.452Z,14.85
2023-04-16T14:05:59.118Z,14.66
2023-04-16T14:08:27.913Z,14.79
2023-04-16T14:10:55.759Z,14.69
2023-04-16T14:13:22.683Z,14.77
2023-04-16T14:15:49.431Z,14.84
2023-04-16T14:18:16.127Z,14.67
2023-04-16T14:20:44.212Z,14.68
2023-04-16T14:23:12.441Z,14.42
2023-04-16T14:25:39.031Z,14.41
2023-04-16T14:28:05.740Z,14.55
2023-04-16T14:30:32.280Z,14.65
2023-04-16T14:32:59.030Z,14.66
2023-04-16T14:35:25.657Z,14.64
2023-04-16T14:37:52.380Z,14.67
2023-04-16T14:40:19.021Z,14.49
2023-04-16T14:42:45.865Z,14.67
2023-04-16T14:45:12.457Z,14.69
2023-04-16T14:47:45.782Z,14.64
2023-04-16T14:50:12.722Z,14.82
2023-04-16T14:52:39.737Z,15.17
2023-04-16T14:55:06.928Z,15.32
2023-04-16T14:57:33.479Z,15.38
2023-04-16T15:00:00.176Z,15.42
2023-04-16T15:02:26.987Z,15.46
2023-04-16T15:04:54.278Z,15.10
2023-04-16T15:07:24.150Z,15.05
2023-04-16T15:09:51.083Z,15.03
2023-04-16T15:12:19.082Z,15.05
2023-04-16T15:14:46.093Z,15.02
2023-04-16T15:17:12.676Z,15.34
2023-04-16T15:19:39.356Z,15.17
2023-04-16T15:22:05.870Z,15.07
2023-04-16T15:24:32.608Z,15.28
2023-04-16T15:26:59.124Z,15.16
2023-04-16T15:29:25.839Z,14.92
2023-04-16T15:31:52.391Z,14.88
2023-04-16T15:34:18.999Z,14.72
2023-04-16T15:36:45.628Z,14.81
2023-04-16T15:39:12.551Z,14.93
2023-04-16T15:41:50.203Z,14.68
2023-04-16T15:44:26.209Z,14.71
2023-04-16T15:46:52.742Z,14.56
2023-04-16T15:49:19.292Z,14.30
2023-04-16T15:51:46.294Z,14.40
2023-04-16T15:54:13.057Z,14.38
2023-04-16T15:56:39.678Z,14.35
2023-04-16T15:59:06.554Z,14.49
2023-04-16T16:01:33.133Z,14.41
2023-04-16T16:04:07.248Z,14.42
2023-04-16T16:06:34.180Z,14.11
2023-04-16T16:09:00.963Z,13.94
2023-04-16T16:11:27.808Z,13.67
2023-04-16T16:13:54.415Z,13.71
2023-04-16T16:16:21.887Z,13.58
2023-04-16T16:18:48.779Z,13.35
2023-04-16T16:21:15.337Z,13.05
2023-04-16T16:23:42.052Z,13.13
2023-04-16T16:26:09.517Z,12.88
2023-04-16T16:28:39.017Z,13.08
2023-04-16T16:31:06.108Z,12.84
2023-04-16T16:33:33.341Z,12.95
2023-04-16T16:35:59.974Z,13.05
2023-04-16T16:38:27.120Z,12.84
2023-04-16T16:40:53.757Z,12.69
2023-04-16T16:43:20.419Z,12.57
2023-04-16T16:45:47.239Z,12.54
2023-04-16T16:48:13.828Z,12.74
2023-04-16T16:50:40.608Z,12.64
2023-04-16T16:53:07.135Z,12.48
2023-04-16T16:55:35.590Z,12.68
2023-04-16T16:58:02.198Z,12.70
2023-04-16T17:00:28.982Z,12.88
2023-04-16T17:02:55.909Z,12.87
2023-04-16T17:05:22.721Z,12.72
2023-04-16T17:07:49.252Z,12.64
2023-04-16T17:10:21.660Z,12.95
2023-04-16T17:12:48.551Z,12.98
2023-04-16T17:15:15.582Z,13.10
2023-04-16T17:17:42.345Z,13.13
2023-04-16T17:20:10.755Z,13.07
2023-04-16T17:22:37.904Z,13.06
2023-04-16T17:25:05.196Z,13.27
2023-04-16T17:27:34.806Z,13.56
2023-04-16T17:30:01.924Z,12.93
2023-04-16T17:32:29.713Z,13.12
2023-04-16T17:34:56.376Z,13.32
2023-04-16T17:37:23.218Z,13.32
2023-04-16T17:39:49.933Z,13.34
2023-04-16T17:42:16.518Z,13.43
2023-04-16T17:44:43.198Z,13.62
2023-04-16T17:47:09.880Z,13.65
2023-04-16T17:49:36.454Z,13.18
2023-04-16T17:52:03.087Z,13.35
2023-04-16T17:54:29.725Z,13.42
2023-04-16T17:56:57.616Z,13.51
2023-04-16T17:59:24.168Z,13.05
2023-04-16T18:01:51.067Z,13.33
2023-04-16T18:04:18.036Z,13.29
2023-04-16T18:06:45.102Z,13.20
2023-04-16T18:09:12.163Z,13.12
2023-04-16T18:11:38.783Z,13.18
2023-04-16T18:14:05.410Z,13.23
2023-04-16T18:16:34.137Z,13.12
2023-04-16T18:19:00.648Z,13.16
2023-04-16T18:21:27.561Z,13.01
2023-04-16T18:23:54.145Z,13.08
2023-04-16T18:26:22.419Z,12.68
2023-04-16T18:28:49.550Z,12.98
2023-04-16T18:31:20.684Z,13.03
2023-04-16T18:33:57.470Z,13.00
2023-04-16T18:36:27.073Z,12.85
2023-04-16T18:39:01.564Z,12.94
2023-04-16T18:41:29.620Z,12.84
2023-04-16T18:43:59.302Z,13.01
2023-04-16T18:46:27.545Z,12.60
2023-04-16T18:48:54.347Z,12.77
2023-04-16T18:51:21.310Z,12.66
2023-04-16T18:53:47.841Z,12.52
2023-04-16T18:56:14.484Z,12.33
2023-04-16T18:58:41.065Z,12.39
2023-04-16T19:01:11.321Z,12.46
2023-04-16T19:03:38.456Z,12.45
2023-04-16T19:06:06.151Z,12.71
2023-04-16T19:08:32.762Z,12.71
2023-04-16T19:10:59.418Z,12.44
2023-04-16T19:13:26.063Z,12.69
2023-04-16T19:15:57.157Z,12.79
2023-04-16T19:18:23.799Z,12.47
2023-04-16T19:20:51.673Z,12.83
2023-04-16T19:23:19.133Z,12.67
2023-04-16T19:25:45.862Z,12.45
2023-04-16T19:28:12.437Z,12.91
2023-04-16T19:30:40.770Z,12.80
2023-04-16T19:33:07.368Z,12.65
2023-04-16T19:35:35.184Z,12.95
2023-04-16T19:38:01.796Z,12.82
2023-04-16T19:40:28.396Z,12.87
2023-04-16T19:42:55.063Z,12.84
2023-04-16T19:45:25.677Z,12.49
2023-04-16T19:47:52.425Z,12.94
2023-04-16T19:50:19.292Z,12.59
2023-04-16T19:52:45.962Z,12.36
2023-04-16T19:55:12.905Z,12.69
2023-04-16T19:57:39.488Z,12.61
2023-04-16T20:00:11.772Z,12.70
2023-04-16T20:02:39.260Z,12.57
2023-04-16T20:05:05.919Z,12.63
2023-04-16T20:07:32.563Z,12.71
2023-04-16T20:09:59.240Z,12.69
2023-04-16T20:12:25.974Z,12.70
2023-04-16T20:14:52.569Z,12.60
2023-04-16T20:17:20.207Z,12.69
2023-04-16T20:19:51.191Z,12.70
2023-04-16T20:22:18.857Z,12.85
2023-04-16T20:24:47.800Z,12.60
2023-04-16T20:27:15.428Z,12.71
2023-04-16T20:29:42.312Z,12.84
2023-04-16T20:32:09.025Z,12.88
2023-04-16T20:34:36.712Z,12.92
2023-04-16T20:37:06.020Z,12.79
2023-04-16T20:39:40.209Z,12.72
2023-04-16T20:42:10.440Z,12.67
2023-04-16T20:44:40.683Z,12.70
2023-04-16T20:47:07.609Z,12.45
2023-04-16T20:49:38.329Z,12.74
2023-04-16T20:52:05.606Z,12.73
2023-04-16T20:54:32.156Z,12.57
2023-04-16T20:56:58.957Z,12.54
2023-04-16T20:59:26.263Z,12.50
2023-04-16T21:01:53.006Z,12.20
2023-04-16T21:04:19.609Z,12.13
2023-04-16T21:06:46.780Z,12.45
2023-04-16T21:09:13.462Z,12.34
2023-04-16T21:11:40.414Z,12.18
2023-04-16T21:14:07.257Z,12.41
2023-04-16T21:16:33.911Z,12.34
2023-04-16T21:19:00.575Z,12.27
2023-04-16T21:21:27.599Z,12.45
2023-04-16T21:23:54.190Z,12.66
2023-04-16T21:26:20.961Z,12.32
2023-04-16T21:28:50.599Z,12.44
2023-04-16T21:31:17.253Z,12.52
2023-04-16T21:33:43.825Z,12.30
2023-04-16T21:36:11.985Z,12.37
2023-04-16T21:38:38.591Z,12.44
2023-04-16T21:41:05.166Z,12.14
2023-04-16T21:43:33.038Z,12.20
2023-04-16T21:45:59.818Z,12.11
2023-04-16T21:48:27.077Z,12.21
2023-04-16T21:51:06.181Z,12.25
2023-04-16T21:53:33.041Z,12.26
2023-04-16T21:55:59.658Z,12.12
2023-04-16T21:58:26.293Z,12.32
2023-04-16T22:00:52.953Z,12.14
2023-04-16T22:03:19.826Z,12.18
2023-04-16T22:05:46.600Z,12.13
2023-04-16T22:08:23.883Z,11.71
2023-04-16T22:10:51.264Z,11.87
2023-04-16T22:13:17.996Z,11.89
2023-04-16T22:15:44.634Z,11.77
2023-04-16T22:18:12.973Z,11.71
2023-04-16T22:20:39.904Z,11.79
2023-04-16T22:23:06.841Z,11.84
2023-04-16T22:25:33.750Z,11.89
2023-04-16T22:28:01.584Z,11.73
2023-04-16T22:30:28.350Z,11.72
2023-04-16T22:32:55.143Z,11.73
2023-04-16T22:35:22.116Z,11.59
2023-04-16T22:37:48.687Z,11.56
2023-04-16T22:40:18.560Z,11.67
2023-04-16T22:42:45.204Z,11.71
2023-04-16T22:45:12.660Z,11.38
2023-04-16T22:47:39.470Z,11.43
2023-04-16T22:50:07.525Z,11.53
2023-04-16T22:52:34.121Z,11.51
2023-04-16T22:55:00.681Z,11.22
2023-04-16T22:57:27.270Z,11.35
2023-04-16T22:59:53.841Z,11.37
2023-04-16T23:02:22.031Z,11.31
2023-04-16T23:04:48.700Z,11.32
2023-04-16T23:07:15.757Z,11.35
2023-04-16T23:09:42.752Z,11.05
2023-04-16T23:12:09.387Z,10.70
2023-04-16T23:14:37.033Z,10.93
2023-04-16T23:17:05.896Z,10.81
2023-04-16T23:19:32.437Z,10.84
2023-04-16T23:21:59.120Z,10.63
2023-04-16T23:24:25.700Z,10.48
2023-04-16T23:26:52.741Z,10.37
2023-04-16T23:29:20.327Z,10.61
2023-04-16T23:31:47.007Z,10.35
2023-04-16T23:34:13.630Z,10.28
2023-04-16T23:36:40.823Z,10.15
2023-04-16T23:39:07.415Z,10.31
2023-04-16T23:41:34.308Z,10.14
2023-04-16T23:44:00.922Z,10.18
2023-04-16T23:46:27.574Z,10.02
2023-04-16T23:48:55.263Z,10.02
2023-04-16T23:51:22.181Z,9.61
2023-04-16T23:53:48.779Z,9.71
2023-04-16T23:56:16.385Z,9.97
2023-04-16T23:58:42.918Z,9.89
